createdAt,value
2018-06-15T00:00:58.597Z,99.02
2018-06-15T00:04:02.890Z,98.93
2018-06-15T00:07:07.219Z,98.56
2018-06-15T00:10:11.501Z,98.73
2018-06-15T00:13:15.776Z,98.47
2018-06-15T00:16:20.087Z,98.55
2018-06-15T00:19:24.419Z,98.39
2018-06-15T00:22:28.692Z,98.52
2018-06-15T00:25:33.021Z,98.14
2018-06-15T00:28:37.329Z,98.15
2018-06-15T00:31:44.127Z,97.80
2018-06-15T00:34:48.485Z,97.40
2018-06-15T00:37:52.873Z,97.13
2018-06-15T00:40:57.142Z,96.93
2018-06-15T00:44:01.446Z,96.55
2018-06-15T00:47:06.316Z,96.61
2018-06-15T00:50:10.605Z,96.61
2018-06-15T00:53:14.901Z,96.33
2018-06-15T00:56:19.159Z,96.33
2018-06-15T00:59:25.796Z,95.98
2018-06-15T01:02:30.189Z,95.88
2018-06-15T01:05:34.530Z,96.28
2018-06-15T01:08:38.818Z,96.52
2018-06-15T01:11:42.943Z,96.75
2018-06-15T01:14:47.196Z,96.89
2018-06-15T01:17:51.470Z,97.05
2018-06-15T01:20:56.025Z,97.32
2018-06-15T01:24:00.692Z,96.97
2018-06-15T01:27:05.643Z,96.66
2018-06-15T01:30:10.375Z,97.53
2018-06-15T01:33:14.801Z,97.22
2018-06-15T01:36:19.277Z,97.40
2018-06-15T01:39:23.658Z,97.64
2018-06-15T01:42:28.021Z,97.04
2018-06-15T01:45:32.602Z,97.18
2018-06-15T01:48:37.012Z,97.04
2018-06-15T01:51:41.067Z,96.72
2018-06-15T01:54:45.355Z,97.29
2018-06-15T01:57:49.933Z,97.19
2018-06-15T02:00:54.229Z,97.04
2018-06-15T02:03:58.577Z,97.25
2018-06-15T02:07:02.841Z,97.20
2018-06-15T02:10:07.187Z,98.07
2018-06-15T02:13:11.441Z,97.98
2018-06-15T02:16:16.489Z,97.79
2018-06-15T02:19:20.828Z,97.65
2018-06-15T02:22:25.156Z,98.02
2018-06-15T02:25:29.744Z,97.88
2018-06-15T02:28:34.003Z,97.91
2018-06-15T02:31:38.325Z,98.09
2018-06-15T02:34:42.381Z,98.17
2018-06-15T02:37:46.644Z,98.26
2018-06-15T02:40:50.982Z,98.20
2018-06-15T02:43:55.267Z,98.41
2018-06-15T02:46:59.540Z,98.53
2018-06-15T02:50:04.004Z,98.88
2018-06-15T02:53:08.261Z,98.90
2018-06-15T02:56:12.612Z,99.17
2018-06-15T02:59:16.904Z,99.17
2018-06-15T03:02:21.230Z,99.50
2018-06-15T03:05:25.551Z,99.96
2018-06-15T03:08:29.696Z,99.60
2018-06-15T03:11:33.993Z,99.48
2018-06-15T03:14:38.310Z,99.31
2018-06-15T03:17:42.589Z,99.49
2018-06-15T03:20:46.845Z,99.66
2018-06-15T03:23:51.201Z,99.69
2018-06-15T03:26:55.499Z,99.24
2018-06-15T03:29:59.816Z,98.53
2018-06-15T03:33:04.141Z,98.17
2018-06-15T03:36:08.471Z,96.70
2018-06-15T03:39:13.385Z,94.91
2018-06-15T03:42:18.663Z,93.67
2018-06-15T03:45:25.210Z,92.24
2018-06-15T03:48:29.536Z,90.67
2018-06-15T03:51:35.344Z,89.84
2018-06-15T03:54:39.603Z,88.80
2018-06-15T03:57:43.932Z,87.81
2018-06-15T04:00:48.344Z,87.84
2018-06-15T04:03:52.768Z,87.01
2018-06-15T04:07:01.017Z,86.56
2018-06-15T04:10:05.332Z,86.00
2018-06-15T04:13:09.675Z,86.12
2018-06-15T04:16:14.049Z,86.32
2018-06-15T04:19:18.368Z,87.42
2018-06-15T04:22:22.714Z,88.67
2018-06-15T04:25:27.079Z,88.92
2018-06-15T04:28:31.434Z,90.02
2018-06-15T04:31:35.752Z,90.68
2018-06-15T04:34:40.174Z,91.62
2018-06-15T04:37:44.648Z,92.33
2018-06-15T04:40:48.928Z,92.89
2018-06-15T04:43:53.217Z,92.56
2018-06-15T04:46:57.584Z,92.37
2018-06-15T04:50:01.887Z,92.73
2018-06-15T04:53:06.439Z,92.75
2018-06-15T04:56:10.791Z,93.12
2018-06-15T04:59:15.147Z,92.82
2018-06-15T05:02:19.541Z,92.80
2018-06-15T05:05:23.996Z,93.25
2018-06-15T05:08:28.320Z,93.53
2018-06-15T05:11:32.701Z,92.35
2018-06-15T05:14:37.140Z,91.85
2018-06-15T05:17:41.492Z,91.36
2018-06-15T05:20:45.844Z,91.24
2018-06-15T05:23:50.095Z,90.64
2018-06-15T05:26:54.423Z,90.75
2018-06-15T05:29:58.692Z,89.91
2018-06-15T05:33:03.022Z,89.63
2018-06-15T05:36:07.318Z,90.25
2018-06-15T05:39:12.327Z,89.32
2018-06-15T05:42:16.667Z,87.30
2018-06-15T05:45:21.018Z,86.82
2018-06-15T05:48:25.315Z,87.08
2018-06-15T05:51:29.665Z,85.86
2018-06-15T05:54:33.945Z,86.31
2018-06-15T05:57:38.405Z,84.01
2018-06-15T06:00:42.754Z,84.52
2018-06-15T06:03:47.076Z,84.49
2018-06-15T06:06:51.324Z,85.07
2018-06-15T06:09:55.669Z,83.92
2018-06-15T06:12:59.691Z,84.85
2018-06-15T06:16:04.018Z,82.60
2018-06-15T06:19:08.308Z,82.45
2018-06-15T06:22:12.636Z,80.37
2018-06-15T06:25:17.021Z,81.07
2018-06-15T06:28:21.231Z,79.14
2018-06-15T06:31:25.585Z,76.99
2018-06-15T06:34:29.941Z,77.24
2018-06-15T06:37:34.242Z,77.20
2018-06-15T06:40:38.562Z,75.34
2018-06-15T06:43:42.909Z,75.08
2018-06-15T06:46:47.214Z,74.86
2018-06-15T06:49:51.513Z,73.77
2018-06-15T06:52:55.861Z,73.12
2018-06-15T06:56:00.258Z,73.36
2018-06-15T06:59:04.583Z,72.56
2018-06-15T07:02:08.873Z,71.36
2018-06-15T07:05:13.242Z,72.26
2018-06-15T07:08:17.581Z,68.66
2018-06-15T07:11:21.868Z,69.97
2018-06-15T07:14:26.181Z,68.76
2018-06-15T07:17:30.479Z,68.67
2018-06-15T07:20:34.729Z,66.89
2018-06-15T07:23:39.092Z,67.88
2018-06-15T07:26:43.379Z,65.24
2018-06-15T07:29:47.705Z,65.82
2018-06-15T07:32:52.020Z,66.50
2018-06-15T07:35:56.385Z,63.47
2018-06-15T07:39:00.752Z,64.10
2018-06-15T07:42:07.693Z,63.65
2018-06-15T07:45:11.965Z,63.68
2018-06-15T07:48:16.263Z,62.93
2018-06-15T07:51:20.631Z,62.61
2018-06-15T07:54:24.854Z,60.94
2018-06-15T07:57:29.128Z,60.11
2018-06-15T08:00:33.484Z,61.38
2018-06-15T08:03:37.753Z,58.83
2018-06-15T08:06:42.449Z,58.88
2018-06-15T08:09:46.749Z,58.36
2018-06-15T08:12:50.992Z,58.16
2018-06-15T08:15:55.399Z,58.39
2018-06-15T08:18:59.683Z,57.72
2018-06-15T08:22:03.998Z,58.03
2018-06-15T08:25:08.265Z,56.23
2018-06-15T08:28:12.528Z,58.87
2018-06-15T08:31:16.992Z,58.17
2018-06-15T08:34:21.356Z,57.88
2018-06-15T08:37:25.684Z,55.87
2018-06-15T08:40:29.969Z,54.91
2018-06-15T08:43:34.239Z,54.13
2018-06-15T08:46:38.927Z,52.99
2018-06-15T08:49:43.219Z,54.14
2018-06-15T08:52:47.663Z,56.00
2018-06-15T08:55:52.071Z,56.32
2018-06-15T08:58:56.475Z,54.99
2018-06-15T09:02:00.900Z,54.58
2018-06-15T09:05:05.190Z,52.16
2018-06-15T09:08:09.497Z,49.81
2018-06-15T09:11:13.821Z,52.45
2018-06-15T09:14:18.128Z,54.81
2018-06-15T09:17:22.452Z,58.01
2018-06-15T09:20:26.772Z,57.37
2018-06-15T09:23:31.093Z,55.13
2018-06-15T09:26:35.417Z,53.42
2018-06-15T09:29:39.699Z,52.90
2018-06-15T09:32:44.129Z,53.28
2018-06-15T09:35:49.364Z,55.70
2018-06-15T09:38:53.749Z,55.58
2018-06-15T09:41:58.065Z,54.62
2018-06-15T09:45:02.354Z,56.32
2018-06-15T09:48:07.238Z,54.11
2018-06-15T09:51:12.354Z,51.50
2018-06-15T09:54:16.644Z,50.51
2018-06-15T09:57:20.977Z,50.32
2018-06-15T10:00:30.621Z,48.95
2018-06-15T10:03:34.887Z,50.58
2018-06-15T10:06:39.242Z,49.56
2018-06-15T10:09:43.566Z,50.04
2018-06-15T10:12:47.876Z,50.33
2018-06-15T10:15:52.385Z,50.68
2018-06-15T10:18:57.956Z,53.21
2018-06-15T10:22:02.303Z,53.01
2018-06-15T10:25:06.598Z,50.05
2018-06-15T10:28:10.948Z,50.20
2018-06-15T10:31:15.313Z,47.78
2018-06-15T10:34:19.648Z,46.81
2018-06-15T10:37:24.011Z,47.09
2018-06-15T10:40:28.369Z,46.62
2018-06-15T10:43:32.713Z,46.79
2018-06-15T10:46:37.017Z,45.13
2018-06-15T10:49:41.309Z,46.07
2018-06-15T10:52:45.579Z,44.75
2018-06-15T10:55:49.924Z,43.10
2018-06-15T10:58:54.206Z,43.29
2018-06-15T11:01:58.524Z,45.08
2018-06-15T11:05:02.854Z,46.06
2018-06-15T11:08:07.173Z,46.50
2018-06-15T11:11:11.519Z,45.67
2018-06-15T11:14:15.787Z,42.81
2018-06-15T11:17:20.121Z,41.85
2018-06-15T11:20:24.449Z,42.38
2018-06-15T11:23:28.765Z,44.15
2018-06-15T11:26:33.117Z,44.79
2018-06-15T11:29:37.508Z,46.79
2018-06-15T11:32:41.820Z,47.51
2018-06-15T11:35:46.165Z,46.91
2018-06-15T11:38:50.442Z,47.42
2018-06-15T11:41:54.904Z,46.71
2018-06-15T11:44:59.175Z,44.36
2018-06-15T11:48:03.544Z,44.50
2018-06-15T11:51:08.036Z,42.76
2018-06-15T11:54:12.390Z,42.92
2018-06-15T11:57:16.696Z,45.13
2018-06-15T12:00:21.043Z,44.78
2018-06-15T12:03:25.324Z,43.58
2018-06-15T12:06:29.661Z,42.44
2018-06-15T12:09:33.924Z,42.60
2018-06-15T12:12:38.321Z,41.83
2018-06-15T12:15:42.601Z,42.90
2018-06-15T12:18:46.936Z,42.74
2018-06-15T12:21:51.512Z,43.88
2018-06-15T12:24:56.204Z,43.72
2018-06-15T12:28:00.511Z,44.83
2018-06-15T12:31:04.820Z,46.34
2018-06-15T12:34:11.945Z,45.89
2018-06-15T12:37:16.247Z,46.52
2018-06-15T12:40:20.515Z,46.79
2018-06-15T12:43:24.856Z,48.68
2018-06-15T12:46:29.213Z,47.29
2018-06-15T12:49:33.646Z,46.30
2018-06-15T12:52:38.091Z,46.56
2018-06-15T12:55:42.454Z,46.47
2018-06-15T12:58:46.769Z,47.82
2018-06-15T13:01:51.095Z,48.95
2018-06-15T13:04:55.384Z,47.73
2018-06-15T13:07:59.743Z,48.44
2018-06-15T13:11:04.311Z,46.83
2018-06-15T13:14:08.575Z,47.90
2018-06-15T13:17:12.711Z,45.86
2018-06-15T13:20:17.013Z,44.63
2018-06-15T13:23:21.284Z,43.98
2018-06-15T13:26:25.673Z,43.48
2018-06-15T13:29:29.965Z,42.62
2018-06-15T13:32:34.279Z,44.18
2018-06-15T13:35:38.772Z,42.50
2018-06-15T13:38:44.679Z,43.45
2018-06-15T13:41:49.464Z,43.31
2018-06-15T13:44:53.732Z,42.53
2018-06-15T13:47:58.884Z,42.80
2018-06-15T13:51:03.179Z,42.03
2018-06-15T13:54:07.522Z,42.63
2018-06-15T13:57:11.868Z,42.12
2018-06-15T14:00:16.112Z,43.03
2018-06-15T14:03:20.395Z,43.29
2018-06-15T14:06:24.717Z,42.80
2018-06-15T14:09:28.948Z,45.39
2018-06-15T14:12:33.302Z,43.09
2018-06-15T14:15:37.349Z,41.68
2018-06-15T14:18:41.625Z,41.74
2018-06-15T14:21:45.961Z,43.20
2018-06-15T14:24:50.072Z,43.04
2018-06-15T14:27:54.387Z,40.70
2018-06-15T14:30:58.692Z,42.32
2018-06-15T14:34:03.024Z,40.66
2018-06-15T14:37:07.351Z,40.96
2018-06-15T14:40:11.612Z,41.21
2018-06-15T14:43:15.979Z,43.09
2018-06-15T14:46:20.327Z,39.14
2018-06-15T14:49:25.026Z,39.43
2018-06-15T14:52:29.342Z,39.74
2018-06-15T14:55:33.672Z,40.83
2018-06-15T14:58:38.029Z,38.53
2018-06-15T15:01:42.288Z,40.05
2018-06-15T15:04:46.364Z,38.69
2018-06-15T15:07:50.639Z,38.60
2018-06-15T15:10:54.709Z,38.52
2018-06-15T15:13:58.983Z,38.45
2018-06-15T15:17:03.121Z,38.54
2018-06-15T15:20:07.396Z,36.87
2018-06-15T15:23:11.676Z,37.88
2018-06-15T15:26:15.956Z,36.83
2018-06-15T15:29:20.245Z,33.69
2018-06-15T15:32:24.560Z,34.83
2018-06-15T15:35:29.150Z,33.09
2018-06-15T15:38:33.530Z,33.51
2018-06-15T15:41:37.829Z,33.85
2018-06-15T15:44:42.155Z,34.00
2018-06-15T15:47:46.501Z,33.74
2018-06-15T15:50:50.888Z,33.84
2018-06-15T15:53:55.160Z,33.73
2018-06-15T15:56:59.573Z,33.94
2018-06-15T16:00:04.000Z,32.09
2018-06-15T16:03:08.393Z,32.50
2018-06-15T16:06:12.717Z,32.95
2018-06-15T16:09:16.983Z,32.66
2018-06-15T16:12:21.512Z,32.10
2018-06-15T16:15:25.851Z,31.80
2018-06-15T16:18:30.181Z,32.02
2018-06-15T16:21:34.473Z,31.69
2018-06-15T16:24:38.830Z,31.94
2018-06-15T16:27:43.134Z,31.68
2018-06-15T16:30:47.496Z,32.16
2018-06-15T16:33:51.906Z,31.14
2018-06-15T16:36:56.330Z,31.71
2018-06-15T16:40:00.637Z,31.90
2018-06-15T16:43:04.904Z,31.08
2018-06-15T16:46:09.309Z,32.14
2018-06-15T16:49:13.689Z,31.51
2018-06-15T16:52:17.966Z,32.58
2018-06-15T16:55:22.304Z,32.02
2018-06-15T16:58:26.590Z,32.25
2018-06-15T17:01:30.948Z,32.14
2018-06-15T17:04:35.298Z,31.08
2018-06-15T17:07:39.687Z,31.74
2018-06-15T17:10:44.037Z,31.95
2018-06-15T17:13:48.494Z,32.49
2018-06-15T17:16:52.894Z,33.80
2018-06-15T17:19:57.312Z,34.56
2018-06-15T17:23:01.767Z,36.56
2018-06-15T17:26:06.147Z,38.12
2018-06-15T17:29:10.434Z,38.66
2018-06-15T17:32:14.781Z,40.58
2018-06-15T17:35:19.167Z,40.74
2018-06-15T17:38:23.757Z,40.60
2018-06-15T17:41:28.056Z,40.46
2018-06-15T17:44:32.406Z,41.94
2018-06-15T17:47:36.693Z,42.67
2018-06-15T17:50:41.074Z,41.71
2018-06-15T17:53:45.696Z,43.06
2018-06-15T17:56:50.093Z,44.13
2018-06-15T17:59:54.415Z,44.12
2018-06-15T18:02:58.772Z,45.01
2018-06-15T18:06:03.102Z,44.75
2018-06-15T18:09:10.404Z,45.69
2018-06-15T18:12:14.830Z,46.48
2018-06-15T18:15:19.181Z,46.45
2018-06-15T18:18:23.427Z,46.61
2018-06-15T18:21:27.755Z,48.26
2018-06-15T18:24:32.086Z,47.43
2018-06-15T18:27:36.435Z,48.64
2018-06-15T18:30:40.848Z,48.94
2018-06-15T18:33:45.161Z,49.41
2018-06-15T18:36:49.517Z,50.24
2018-06-15T18:39:54.191Z,50.34
2018-06-15T18:42:58.511Z,51.45
2018-06-15T18:46:02.870Z,52.34
2018-06-15T18:49:07.617Z,53.22
2018-06-15T18:52:12.034Z,52.03
2018-06-15T18:55:16.734Z,52.15
2018-06-15T18:58:21.046Z,52.66
2018-06-15T19:01:25.647Z,52.85
2018-06-15T19:04:30.094Z,54.83
2018-06-15T19:07:34.552Z,54.58
2018-06-15T19:10:38.841Z,55.31
2018-06-15T19:13:44.324Z,56.27
2018-06-15T19:16:48.732Z,57.42
2018-06-15T19:19:53.021Z,57.50
2018-06-15T19:23:02.607Z,58.31
2018-06-15T19:26:06.861Z,59.83
2018-06-15T19:29:11.341Z,61.04
2018-06-15T19:32:15.739Z,62.48
2018-06-15T19:35:20.316Z,63.52
2018-06-15T19:38:24.667Z,63.82
2018-06-15T19:41:29.057Z,64.47
2018-06-15T19:44:33.437Z,65.10
2018-06-15T19:47:37.857Z,65.45
2018-06-15T19:50:42.254Z,65.20
2018-06-15T19:53:46.506Z,65.36
2018-06-15T19:56:50.886Z,65.75
2018-06-15T19:59:55.232Z,66.52
2018-06-15T20:02:59.640Z,66.55
2018-06-15T20:06:04.084Z,66.99
2018-06-15T20:09:09.223Z,67.53
2018-06-15T20:12:13.665Z,68.88
2018-06-15T20:15:18.040Z,69.38
2018-06-15T20:18:22.349Z,68.62
2018-06-15T20:21:26.596Z,68.07
2018-06-15T20:24:30.958Z,67.89
2018-06-15T20:27:35.219Z,68.33
2018-06-15T20:30:39.509Z,69.65
2018-06-15T20:33:43.848Z,69.72
2018-06-15T20:36:48.128Z,70.27
2018-06-15T20:39:52.500Z,70.64
2018-06-15T20:42:56.802Z,70.90
2018-06-15T20:46:01.107Z,71.72
2018-06-15T20:49:05.733Z,71.79
2018-06-15T20:52:10.321Z,71.99
2018-06-15T20:55:14.804Z,73.02
2018-06-15T20:58:19.335Z,73.01
2018-06-15T21:01:23.729Z,73.90
2018-06-15T21:04:28.035Z,74.38
2018-06-15T21:07:33.548Z,73.97
2018-06-15T21:10:38.091Z,74.33
2018-06-15T21:13:42.400Z,74.23
2018-06-15T21:16:46.797Z,74.72
2018-06-15T21:19:51.357Z,74.94
2018-06-15T21:22:55.731Z,74.78
2018-06-15T21:26:00.035Z,74.08
2018-06-15T21:29:04.879Z,72.99
2018-06-15T21:32:09.184Z,71.11
2018-06-15T21:35:13.614Z,70.42
2018-06-15T21:38:17.914Z,70.83
2018-06-15T21:41:22.253Z,70.70
2018-06-15T21:44:26.681Z,70.66
2018-06-15T21:47:31.081Z,71.08
2018-06-15T21:50:35.792Z,71.13
2018-06-15T21:53:40.085Z,71.03
2018-06-15T21:56:44.549Z,70.62
2018-06-15T21:59:48.798Z,70.31
2018-06-15T22:02:53.281Z,70.42
2018-06-15T22:05:57.657Z,70.05
2018-06-15T22:09:02.004Z,70.52
2018-06-15T22:12:06.346Z,71.26
2018-06-15T22:15:10.781Z,72.07
2018-06-15T22:18:15.062Z,71.86
2018-06-15T22:21:19.406Z,71.90
2018-06-15T22:24:24.155Z,71.91
2018-06-15T22:27:28.512Z,72.62
2018-06-15T22:30:32.848Z,72.13
2018-06-15T22:33:37.173Z,71.87
2018-06-15T22:36:41.987Z,70.48
2018-06-15T22:39:46.397Z,69.72
2018-06-15T22:42:50.758Z,70.15
2018-06-15T22:45:54.912Z,70.62
2018-06-15T22:48:59.343Z,70.46
2018-06-15T22:52:03.954Z,71.02
2018-06-15T22:55:08.539Z,71.04
2018-06-15T22:58:13.008Z,69.90
2018-06-15T23:01:17.422Z,70.40
2018-06-15T23:04:21.733Z,71.13
2018-06-15T23:07:26.161Z,70.44
2018-06-15T23:10:30.606Z,70.26
2018-06-15T23:13:35.129Z,70.89
2018-06-15T23:16:39.519Z,71.92
2018-06-15T23:19:44.070Z,74.75
2018-06-15T23:22:48.485Z,74.56
2018-06-15T23:25:52.843Z,72.89
2018-06-15T23:28:57.228Z,71.92
2018-06-15T23:32:02.413Z,71.84
2018-06-15T23:35:06.891Z,72.18
2018-06-15T23:38:11.297Z,72.29
2018-06-15T23:41:15.642Z,72.47
2018-06-15T23:44:20.015Z,72.54
2018-06-15T23:47:24.667Z,72.67
2018-06-15T23:50:29.108Z,72.29
2018-06-15T23:53:33.747Z,73.18
2018-06-15T23:56:38.070Z,72.99
2018-06-15T23:59:42.575Z,73.81
